This is the latest recevied weather packets stored in our database for station/object EPGD. If no packets are shown the sender has not sent any weather packets the latest 10 day(s).
| Time | Temp. | Humidity | Pressure | Rain* | Wind** | Luminosity | Snow |
|---|---|---|---|---|---|---|---|
| 1788521704 | 17.78° C | 72% | 1006 hPa | - | - | - | - |
| 1788518104 | 17.78° C | 72% | 1006 hPa | - | - | - | - |
| 1788514504 | 17.78° C | 72% | 1007 hPa | - | - | - | - |
| 1788512704 | 17.78° C | 77% | 1007 hPa | - | - | - | - |
| 1788510904 | 16.67° C | 82% | 1007 hPa | - | - | - | - |
| 1788509104 | 16.67° C | 82% | 1007 hPa | - | - | - | - |
| 1788507304 | 15.56° C | 87% | 1007 hPa | - | - | - | - |
| 1788505504 | 15.56° C | 87% | 1007 hPa | - | - | - | - |
| 1788503704 | 15° C | 93% | 1007 hPa | - | - | - | - |
| 1788501904 | 15.56° C | 87% | 1007 hPa | - | - | - | - |
| 1788500104 | 15.56° C | 87% | 1007 hPa | - | - | - | - |
| 1788498304 | 15.56° C | 87% | 1008 hPa | - | - | - | - |
| 1788496504 | 15.56° C | 87% | 1008 hPa | - | - | - | - |
| 1788494704 | 15.56° C | 87% | 1008 hPa | - | - | - | - |
| 1788492904 | 15.56° C | 87% | 1008 hPa | - | - | - | - |
| 1788471304 | 15° C | 100% | 1010 hPa | - | - | - | - |
| 1788467704 | 15.56° C | 87% | 1010 hPa | - | - | - | - |
| 1788465904 | 15.56° C | 87% | 1010 hPa | - | - | - | - |
| 1788447904 | 15.56° C | 93% | 1013 hPa | - | - | - | - |
| 1788442504 | 18.89° C | 68% | 1013 hPa | - | - | - | - |
| 1788440704 | 18.89° C | 68% | 1014 hPa | - | - | - | - |
| 1788438904 | 18.89° C | 63% | 1014 hPa | - | - | - | - |
| 1788433504 | 20° C | 59% | 1014 hPa | - | - | - | - |
| 1788431704 | 20° C | 59% | 1015 hPa | - | - | - | - |
| 1788429904 | 18.89° C | 63% | 1015 hPa | - | - | - | - |
* Rain since midnight (hover to see other rain measurements)
** Current wind speed in m/s (hover to see current wind gust speed)